McLeod, MT (59052)

8:07 PM MDT on September 15, 2014 (GMT -0600)
Mission | Change Station
CLOSE
Current Station
Airport
Location: Livingston,
Elevation: 4656 ft
Nearby Weather Stations

Elev 4656 ft 45.70 °N, 110.44 °W | Updated 14 minutes ago

Clear
Clear
60 °F
Feels Like 60 °F
N
4
Wind Variable Wind from Variable

Today
High -- | Low -- °F
--% Chance of Precip.
Yesterday
High -- | Low -- °F
Precip. -- in
6:59 AM 7:32 PM
Waning Gibbous, 50% visible
Pressure 30.06 in
Visibility 10.0 miles
Clouds Clear
Dew Point 32 °F
Humidity 35%
Rainfall 0.00 in
Snow Depth 0 in , 0 in , 0 in
UV 0 out of 12
Pollen 6.10 out of 12
Air Quality Not available.
Flu Activity Not available.
METAR KLVM 160153Z AUTO VRB03KT 10SM CLR 16/00 A3007 RMK AO2 SLP178 T01560000

More Conditions Fewer Conditions

Pressure 30.06 in
Visibility 10.0 miles
Clouds Clear
Dew Point 32 °F
Humidity 35%
Rainfall 0.00 in
Snow Depth 0 in , 0 in , 0 in
UV 0 out of 12
Pollen 6.10 out of 12
Air Quality Not available.
Flu Activity Not available.
METAR KLVM 160153Z AUTO VRB03KT 10SM CLR 16/00 A3007 RMK AO2 SLP178 T01560000

More Conditions Fewer Conditions

10-Day Weather Forecast

Almanac

Astronomy

Sep. 15, 2014 Rise Set
Actual Time 6:59 AM MDT 7:32 PM MDT
Civil Twilight 6:29 AM MDT 8:01 PM MDT
Nautical Twilight 5:54 AM MDT 8:37 PM MDT
Astronomical Twilight 5:17 AM MDT 9:13 PM MDT
Moon No Moon Rise 2:20 PM MDT (9/15)
Length of Visible Light 13h 32m
Length of Day
12h 32m
Tomorrow will be 3m 9s shorter.
Waning Gibbous, 50% of the Moon is Illuminated
Today
Waning Gibbous
Sep 24
New
Oct 1
First Quarter
Oct 8
Full
Oct 15
Last Quarter

Today's Extremes

State Highs State Lows

Community

WunderPhotos

Upload Photos

1,753,650 photos uploaded!

WunderBlogs® & News

Nearby

Snow Depth

Station Depth Elevation
Short Creek 0 in 7000 ft
Emery Creek 1 in 4350 ft
Dupuyer Creek 0 in 5750 ft
Lone Mountain 0 in 8880 ft
Waldron 1 in 5600 ft

Earthquake Activity

City Distance Mag. Time & Date
No recent earthquake activity has been reported nearby.
Minimum magnitude displayed is 2.5.

Coastal Water Temperatures

Place Temperature
No Stations Reporting

Nearby Weather Stations